<?xml version="1.0" encoding="UTF-8"?>
<gpx xmlns="http://www.topografix.com/GPX/1/1" xmlns:gpsies="https://www.gpsies.com/GPX/1/0" creator="GPSies https://www.gpsies.com - Lacu Rosu - Varful Suhardul Bicaz" version="1.1" xmlns:xsi="http://www.w3.org/2001/XMLSchema-instance" xsi:schemaLocation="http://www.topografix.com/GPX/1/1 http://www.topografix.com/GPX/1/1/gpx.xsd https://www.gpsies.com/GPX/1/0 https://www.gpsies.com/gpsies.xsd">
  <metadata>
    <name>Lacu Rosu - Varful Suhardul Bicaz</name>
    <author>
      <name>czasoprzestrzenny</name>
      <link href="https://www.gpsies.com/mapUser.do?username=czasoprzestrzenny">
        <text>czasoprzestrzenny on GPSies.com</text>
        <type>GPSiesUserOnWeb</type>
      </link>
    </author>
    <link href="https://www.gpsies.com/map.do?fileId=oumehmfkabzebvjz">
      <text>Lacu Rosu - Varful Suhardul Bicaz on GPSies.com</text>
      <type>trackOnWeb</type>
    </link>
    <time>2019-01-07T17:39:08Z</time>
    <extensions>
      <gpsies:property>round trip</gpsies:property>
      <gpsies:trackLengthMeter>4102.392160666023</gpsies:trackLengthMeter>
      <gpsies:totalAscentMeter>338.0</gpsies:totalAscentMeter>
      <gpsies:totalDescentMeter>353.0</gpsies:totalDescentMeter>
      <gpsies:minHeightMeter>974.0</gpsies:minHeightMeter>
      <gpsies:maxHeightMeter>1331.0</gpsies:maxHeightMeter>
    </extensions>
  </metadata>
  <trk>
    <name>Lacu Rosu - Varful Suhardul Bicaz on GPSies.com</name>
    <link href="https://www.gpsies.com/map.do?fileId=oumehmfkabzebvjz">
      <type>trackOnWeb</type>
    </link>
    <link href="https://www.gpsies.com/charts/ou/map/oumehmfkabzebvjz_map.png">
      <type>elevationChartUrlMap</type>
    </link>
    <link href="https://www.gpsies.com/charts/ou/mapThumb/oumehmfkabzebvjz_mapThumb.png">
      <type>elevationChartUrlMapThumb</type>
    </link>
    <link href="https://www.gpsies.com/charts/ou/tab/oumehmfkabzebvjz_tab.png">
      <type>elevationChartUrlTab</type>
    </link>
    <trkseg>
      <trkpt lat="46.79342350" lon="25.79283650">
        <ele>989.00000</ele>
        <time>2010-01-01T00:00:00Z</time>
      </trkpt>
      <trkpt lat="46.79409240" lon="25.79265010">
        <ele>1025.0000</ele>
        <time>2010-01-01T00:00:27Z</time>
      </trkpt>
      <trkpt lat="46.79447680" lon="25.79342980">
        <ele>1040.0000</ele>
        <time>2010-01-01T00:00:53Z</time>
      </trkpt>
      <trkpt lat="46.79453290" lon="25.79381360">
        <ele>1036.0000</ele>
        <time>2010-01-01T00:01:04Z</time>
      </trkpt>
      <trkpt lat="46.79526450" lon="25.79538650">
        <ele>1041.0000</ele>
        <time>2010-01-01T00:01:56Z</time>
      </trkpt>
      <trkpt lat="46.79556520" lon="25.79573430">
        <ele>1043.0000</ele>
        <time>2010-01-01T00:02:11Z</time>
      </trkpt>
      <trkpt lat="46.79596060" lon="25.79552590">
        <ele>1056.0000</ele>
        <time>2010-01-01T00:02:28Z</time>
      </trkpt>
      <trkpt lat="46.79619480" lon="25.79515100">
        <ele>1069.0000</ele>
        <time>2010-01-01T00:02:42Z</time>
      </trkpt>
      <trkpt lat="46.79675470" lon="25.79517650">
        <ele>1091.0000</ele>
        <time>2010-01-01T00:03:04Z</time>
      </trkpt>
      <trkpt lat="46.79691080" lon="25.79537210">
        <ele>1096.0000</ele>
        <time>2010-01-01T00:03:13Z</time>
      </trkpt>
      <trkpt lat="46.79706880" lon="25.79532530">
        <ele>1103.0000</ele>
        <time>2010-01-01T00:03:19Z</time>
      </trkpt>
      <trkpt lat="46.79719990" lon="25.79516220">
        <ele>1109.0000</ele>
        <time>2010-01-01T00:03:26Z</time>
      </trkpt>
      <trkpt lat="46.79743130" lon="25.79498400">
        <ele>1116.0000</ele>
        <time>2010-01-01T00:03:37Z</time>
      </trkpt>
      <trkpt lat="46.79749680" lon="25.79437890">
        <ele>1125.0000</ele>
        <time>2010-01-01T00:03:53Z</time>
      </trkpt>
      <trkpt lat="46.79771480" lon="25.79385480">
        <ele>1141.0000</ele>
        <time>2010-01-01T00:04:10Z</time>
      </trkpt>
      <trkpt lat="46.79786730" lon="25.79346700">
        <ele>1157.0000</ele>
        <time>2010-01-01T00:04:22Z</time>
      </trkpt>
      <trkpt lat="46.79794680" lon="25.79321850">
        <ele>1163.0000</ele>
        <time>2010-01-01T00:04:30Z</time>
      </trkpt>
      <trkpt lat="46.79809790" lon="25.79305300">
        <ele>1175.0000</ele>
        <time>2010-01-01T00:04:37Z</time>
      </trkpt>
      <trkpt lat="46.79820210" lon="25.79272610">
        <ele>1171.0000</ele>
        <time>2010-01-01T00:04:47Z</time>
      </trkpt>
      <trkpt lat="46.79833810" lon="25.79240210">
        <ele>1171.0000</ele>
        <time>2010-01-01T00:04:58Z</time>
      </trkpt>
      <trkpt lat="46.79845910" lon="25.79215070">
        <ele>1173.0000</ele>
        <time>2010-01-01T00:05:06Z</time>
      </trkpt>
      <trkpt lat="46.79859580" lon="25.79194320">
        <ele>1170.0000</ele>
        <time>2010-01-01T00:05:14Z</time>
      </trkpt>
      <trkpt lat="46.79868450" lon="25.79169080">
        <ele>1171.0000</ele>
        <time>2010-01-01T00:05:22Z</time>
      </trkpt>
      <trkpt lat="46.79889820" lon="25.79151650">
        <ele>1181.0000</ele>
        <time>2010-01-01T00:05:32Z</time>
      </trkpt>
      <trkpt lat="46.79911850" lon="25.79128600">
        <ele>1192.0000</ele>
        <time>2010-01-01T00:05:42Z</time>
      </trkpt>
      <trkpt lat="46.79926670" lon="25.79117220">
        <ele>1193.0000</ele>
        <time>2010-01-01T00:05:49Z</time>
      </trkpt>
      <trkpt lat="46.79944970" lon="25.79108470">
        <ele>1195.0000</ele>
        <time>2010-01-01T00:05:57Z</time>
      </trkpt>
      <trkpt lat="46.79956900" lon="25.79085020">
        <ele>1194.0000</ele>
        <time>2010-01-01T00:06:05Z</time>
      </trkpt>
      <trkpt lat="46.79987980" lon="25.79071740">
        <ele>1199.0000</ele>
        <time>2010-01-01T00:06:18Z</time>
      </trkpt>
      <trkpt lat="46.80017020" lon="25.79051720">
        <ele>1202.0000</ele>
        <time>2010-01-01T00:06:31Z</time>
      </trkpt>
      <trkpt lat="46.80038780" lon="25.79048290">
        <ele>1205.0000</ele>
        <time>2010-01-01T00:06:39Z</time>
      </trkpt>
      <trkpt lat="46.80087020" lon="25.79072110">
        <ele>1210.0000</ele>
        <time>2010-01-01T00:07:00Z</time>
      </trkpt>
      <trkpt lat="46.80121870" lon="25.79109560">
        <ele>1221.0000</ele>
        <time>2010-01-01T00:07:17Z</time>
      </trkpt>
      <trkpt lat="46.80207630" lon="25.79227300">
        <ele>1249.0000</ele>
        <time>2010-01-01T00:08:04Z</time>
      </trkpt>
      <trkpt lat="46.80256070" lon="25.79293650">
        <ele>1259.0000</ele>
        <time>2010-01-01T00:08:31Z</time>
      </trkpt>
      <trkpt lat="46.80233600" lon="25.79399050">
        <ele>1303.0000</ele>
        <time>2010-01-01T00:09:01Z</time>
      </trkpt>
      <trkpt lat="46.80189910" lon="25.79400730">
        <ele>1314.0000</ele>
        <time>2010-01-01T00:09:19Z</time>
      </trkpt>
      <trkpt lat="46.80154960" lon="25.79385660">
        <ele>1321.0000</ele>
        <time>2010-01-01T00:09:33Z</time>
      </trkpt>
      <trkpt lat="46.80127190" lon="25.79369050">
        <ele>1326.0000</ele>
        <time>2010-01-01T00:09:45Z</time>
      </trkpt>
      <trkpt lat="46.80106340" lon="25.79356730">
        <ele>1330.0000</ele>
        <time>2010-01-01T00:09:54Z</time>
      </trkpt>
      <trkpt lat="46.80054460" lon="25.79293140">
        <ele>1319.0000</ele>
        <time>2010-01-01T00:10:21Z</time>
      </trkpt>
      <trkpt lat="46.80054280" lon="25.79292950">
        <ele>1319.0000</ele>
        <time>2010-01-01T00:10:21Z</time>
      </trkpt>
      <trkpt lat="46.80054100" lon="25.79292920">
        <ele>1319.0000</ele>
        <time>2010-01-01T00:10:21Z</time>
      </trkpt>
      <trkpt lat="46.80054000" lon="25.79292380">
        <ele>1319.0000</ele>
        <time>2010-01-01T00:10:22Z</time>
      </trkpt>
      <trkpt lat="46.80053690" lon="25.79291640">
        <ele>1319.0000</ele>
        <time>2010-01-01T00:10:22Z</time>
      </trkpt>
      <trkpt lat="46.80053770" lon="25.79290820">
        <ele>1318.0000</ele>
        <time>2010-01-01T00:10:22Z</time>
      </trkpt>
      <trkpt lat="46.80053250" lon="25.79290750">
        <ele>1318.0000</ele>
        <time>2010-01-01T00:10:22Z</time>
      </trkpt>
      <trkpt lat="46.80052770" lon="25.79290880">
        <ele>1319.0000</ele>
        <time>2010-01-01T00:10:23Z</time>
      </trkpt>
      <trkpt lat="46.80052420" lon="25.79290970">
        <ele>1319.0000</ele>
        <time>2010-01-01T00:10:23Z</time>
      </trkpt>
      <trkpt lat="46.80052040" lon="25.79291180">
        <ele>1319.0000</ele>
        <time>2010-01-01T00:10:23Z</time>
      </trkpt>
      <trkpt lat="46.80051670" lon="25.79291300">
        <ele>1319.0000</ele>
        <time>2010-01-01T00:10:23Z</time>
      </trkpt>
      <trkpt lat="46.80050950" lon="25.79290870">
        <ele>1320.0000</ele>
        <time>2010-01-01T00:10:23Z</time>
      </trkpt>
      <trkpt lat="46.80050220" lon="25.79291010">
        <ele>1320.0000</ele>
        <time>2010-01-01T00:10:24Z</time>
      </trkpt>
      <trkpt lat="46.80049990" lon="25.79291220">
        <ele>1320.0000</ele>
        <time>2010-01-01T00:10:24Z</time>
      </trkpt>
      <trkpt lat="46.80049870" lon="25.79291110">
        <ele>1320.0000</ele>
        <time>2010-01-01T00:10:24Z</time>
      </trkpt>
      <trkpt lat="46.80049710" lon="25.79290750">
        <ele>1320.0000</ele>
        <time>2010-01-01T00:10:24Z</time>
      </trkpt>
      <trkpt lat="46.80049450" lon="25.79290550">
        <ele>1320.0000</ele>
        <time>2010-01-01T00:10:24Z</time>
      </trkpt>
      <trkpt lat="46.80049040" lon="25.79290570">
        <ele>1321.0000</ele>
        <time>2010-01-01T00:10:24Z</time>
      </trkpt>
      <trkpt lat="46.80045760" lon="25.79284190">
        <ele>1320.0000</ele>
        <time>2010-01-01T00:10:26Z</time>
      </trkpt>
      <trkpt lat="46.80041120" lon="25.79283620">
        <ele>1322.0000</ele>
        <time>2010-01-01T00:10:28Z</time>
      </trkpt>
      <trkpt lat="46.80035070" lon="25.79281400">
        <ele>1326.0000</ele>
        <time>2010-01-01T00:10:31Z</time>
      </trkpt>
      <trkpt lat="46.80023690" lon="25.79275930">
        <ele>1328.0000</ele>
        <time>2010-01-01T00:10:36Z</time>
      </trkpt>
      <trkpt lat="46.80013700" lon="25.79281030">
        <ele>1328.0000</ele>
        <time>2010-01-01T00:10:40Z</time>
      </trkpt>
      <trkpt lat="46.80003900" lon="25.79285460">
        <ele>1328.0000</ele>
        <time>2010-01-01T00:10:44Z</time>
      </trkpt>
      <trkpt lat="46.79993820" lon="25.79284940">
        <ele>1324.0000</ele>
        <time>2010-01-01T00:10:48Z</time>
      </trkpt>
      <trkpt lat="46.79982790" lon="25.79289310">
        <ele>1321.0000</ele>
        <time>2010-01-01T00:10:52Z</time>
      </trkpt>
      <trkpt lat="46.79973870" lon="25.79297090">
        <ele>1322.0000</ele>
        <time>2010-01-01T00:10:57Z</time>
      </trkpt>
      <trkpt lat="46.79969040" lon="25.79297850">
        <ele>1321.0000</ele>
        <time>2010-01-01T00:10:59Z</time>
      </trkpt>
      <trkpt lat="46.79967440" lon="25.79300360">
        <ele>1322.0000</ele>
        <time>2010-01-01T00:10:59Z</time>
      </trkpt>
      <trkpt lat="46.79966640" lon="25.79300240">
        <ele>1321.0000</ele>
        <time>2010-01-01T00:11:00Z</time>
      </trkpt>
      <trkpt lat="46.79963340" lon="25.79296630">
        <ele>1317.0000</ele>
        <time>2010-01-01T00:11:01Z</time>
      </trkpt>
      <trkpt lat="46.79959740" lon="25.79292920">
        <ele>1312.0000</ele>
        <time>2010-01-01T00:11:03Z</time>
      </trkpt>
      <trkpt lat="46.79959280" lon="25.79292950">
        <ele>1312.0000</ele>
        <time>2010-01-01T00:11:03Z</time>
      </trkpt>
      <trkpt lat="46.79960710" lon="25.79294320">
        <ele>1314.0000</ele>
        <time>2010-01-01T00:11:04Z</time>
      </trkpt>
      <trkpt lat="46.79961120" lon="25.79292900">
        <ele>1313.0000</ele>
        <time>2010-01-01T00:11:05Z</time>
      </trkpt>
      <trkpt lat="46.79964490" lon="25.79302710">
        <ele>1322.0000</ele>
        <time>2010-01-01T00:11:08Z</time>
      </trkpt>
      <trkpt lat="46.79964670" lon="25.79302200">
        <ele>1322.0000</ele>
        <time>2010-01-01T00:11:08Z</time>
      </trkpt>
      <trkpt lat="46.79963970" lon="25.79302010">
        <ele>1321.0000</ele>
        <time>2010-01-01T00:11:08Z</time>
      </trkpt>
      <trkpt lat="46.79962570" lon="25.79301840">
        <ele>1320.0000</ele>
        <time>2010-01-01T00:11:09Z</time>
      </trkpt>
      <trkpt lat="46.79961590" lon="25.79304090">
        <ele>1322.0000</ele>
        <time>2010-01-01T00:11:09Z</time>
      </trkpt>
      <trkpt lat="46.79963700" lon="25.79299120">
        <ele>1319.0000</ele>
        <time>2010-01-01T00:11:11Z</time>
      </trkpt>
      <trkpt lat="46.79963570" lon="25.79298630">
        <ele>1318.0000</ele>
        <time>2010-01-01T00:11:11Z</time>
      </trkpt>
      <trkpt lat="46.79969820" lon="25.79298120">
        <ele>1321.0000</ele>
        <time>2010-01-01T00:11:14Z</time>
      </trkpt>
      <trkpt lat="46.79977230" lon="25.79294550">
        <ele>1322.0000</ele>
        <time>2010-01-01T00:11:17Z</time>
      </trkpt>
      <trkpt lat="46.79982060" lon="25.79287080">
        <ele>1320.0000</ele>
        <time>2010-01-01T00:11:19Z</time>
      </trkpt>
      <trkpt lat="46.79990650" lon="25.79286070">
        <ele>1323.0000</ele>
        <time>2010-01-01T00:11:23Z</time>
      </trkpt>
      <trkpt lat="46.79997150" lon="25.79288480">
        <ele>1328.0000</ele>
        <time>2010-01-01T00:11:26Z</time>
      </trkpt>
      <trkpt lat="46.80009100" lon="25.79284280">
        <ele>1328.0000</ele>
        <time>2010-01-01T00:11:31Z</time>
      </trkpt>
      <trkpt lat="46.80019820" lon="25.79277910">
        <ele>1328.0000</ele>
        <time>2010-01-01T00:11:35Z</time>
      </trkpt>
      <trkpt lat="46.80028050" lon="25.79278950">
        <ele>1330.0000</ele>
        <time>2010-01-01T00:11:38Z</time>
      </trkpt>
      <trkpt lat="46.80030840" lon="25.79281980">
        <ele>1329.0000</ele>
        <time>2010-01-01T00:11:40Z</time>
      </trkpt>
      <trkpt lat="46.80032340" lon="25.79281890">
        <ele>1327.0000</ele>
        <time>2010-01-01T00:11:40Z</time>
      </trkpt>
      <trkpt lat="46.80032550" lon="25.79280320">
        <ele>1327.0000</ele>
        <time>2010-01-01T00:11:41Z</time>
      </trkpt>
      <trkpt lat="46.80033690" lon="25.79284790">
        <ele>1327.0000</ele>
        <time>2010-01-01T00:11:42Z</time>
      </trkpt>
      <trkpt lat="46.80035890" lon="25.79286030">
        <ele>1327.0000</ele>
        <time>2010-01-01T00:11:43Z</time>
      </trkpt>
      <trkpt lat="46.80042340" lon="25.79284460">
        <ele>1322.0000</ele>
        <time>2010-01-01T00:11:46Z</time>
      </trkpt>
      <trkpt lat="46.80049540" lon="25.79292500">
        <ele>1321.0000</ele>
        <time>2010-01-01T00:11:49Z</time>
      </trkpt>
      <trkpt lat="46.80053920" lon="25.79292400">
        <ele>1319.0000</ele>
        <time>2010-01-01T00:11:51Z</time>
      </trkpt>
      <trkpt lat="46.80056210" lon="25.79299430">
        <ele>1322.0000</ele>
        <time>2010-01-01T00:11:53Z</time>
      </trkpt>
      <trkpt lat="46.80061880" lon="25.79303560">
        <ele>1325.0000</ele>
        <time>2010-01-01T00:11:56Z</time>
      </trkpt>
      <trkpt lat="46.80067590" lon="25.79309490">
        <ele>1327.0000</ele>
        <time>2010-01-01T00:11:59Z</time>
      </trkpt>
      <trkpt lat="46.80075480" lon="25.79317030">
        <ele>1328.0000</ele>
        <time>2010-01-01T00:12:02Z</time>
      </trkpt>
      <trkpt lat="46.80078470" lon="25.79321170">
        <ele>1329.0000</ele>
        <time>2010-01-01T00:12:04Z</time>
      </trkpt>
      <trkpt lat="46.80080220" lon="25.79327110">
        <ele>1330.0000</ele>
        <time>2010-01-01T00:12:06Z</time>
      </trkpt>
      <trkpt lat="46.80084980" lon="25.79331120">
        <ele>1331.0000</ele>
        <time>2010-01-01T00:12:08Z</time>
      </trkpt>
      <trkpt lat="46.80089860" lon="25.79340530">
        <ele>1331.0000</ele>
        <time>2010-01-01T00:12:11Z</time>
      </trkpt>
      <trkpt lat="46.80092240" lon="25.79348980">
        <ele>1331.0000</ele>
        <time>2010-01-01T00:12:14Z</time>
      </trkpt>
      <trkpt lat="46.80100790" lon="25.79353880">
        <ele>1331.0000</ele>
        <time>2010-01-01T00:12:17Z</time>
      </trkpt>
      <trkpt lat="46.80107170" lon="25.79359140">
        <ele>1331.0000</ele>
        <time>2010-01-01T00:12:20Z</time>
      </trkpt>
      <trkpt lat="46.80112580" lon="25.79363720">
        <ele>1330.0000</ele>
        <time>2010-01-01T00:12:23Z</time>
      </trkpt>
      <trkpt lat="46.80121460" lon="25.79368460">
        <ele>1327.0000</ele>
        <time>2010-01-01T00:12:27Z</time>
      </trkpt>
      <trkpt lat="46.80133580" lon="25.79370210">
        <ele>1325.0000</ele>
        <time>2010-01-01T00:12:32Z</time>
      </trkpt>
      <trkpt lat="46.80138810" lon="25.79371040">
        <ele>1324.0000</ele>
        <time>2010-01-01T00:12:34Z</time>
      </trkpt>
      <trkpt lat="46.80146740" lon="25.79375560">
        <ele>1322.0000</ele>
        <time>2010-01-01T00:12:37Z</time>
      </trkpt>
      <trkpt lat="46.80152110" lon="25.79381670">
        <ele>1321.0000</ele>
        <time>2010-01-01T00:12:40Z</time>
      </trkpt>
      <trkpt lat="46.80159950" lon="25.79386780">
        <ele>1319.0000</ele>
        <time>2010-01-01T00:12:43Z</time>
      </trkpt>
      <trkpt lat="46.80166190" lon="25.79390820">
        <ele>1317.0000</ele>
        <time>2010-01-01T00:12:46Z</time>
      </trkpt>
      <trkpt lat="46.80174610" lon="25.79396810">
        <ele>1316.0000</ele>
        <time>2010-01-01T00:12:50Z</time>
      </trkpt>
      <trkpt lat="46.80183620" lon="25.79401850">
        <ele>1315.0000</ele>
        <time>2010-01-01T00:12:54Z</time>
      </trkpt>
      <trkpt lat="46.80202560" lon="25.79407470">
        <ele>1311.0000</ele>
        <time>2010-01-01T00:13:01Z</time>
      </trkpt>
      <trkpt lat="46.80212560" lon="25.79407060">
        <ele>1309.0000</ele>
        <time>2010-01-01T00:13:05Z</time>
      </trkpt>
      <trkpt lat="46.80220420" lon="25.79408540">
        <ele>1307.0000</ele>
        <time>2010-01-01T00:13:08Z</time>
      </trkpt>
      <trkpt lat="46.80235170" lon="25.79407230">
        <ele>1303.0000</ele>
        <time>2010-01-01T00:13:14Z</time>
      </trkpt>
      <trkpt lat="46.80247370" lon="25.79400450">
        <ele>1299.0000</ele>
        <time>2010-01-01T00:13:20Z</time>
      </trkpt>
      <trkpt lat="46.80248890" lon="25.79397360">
        <ele>1298.0000</ele>
        <time>2010-01-01T00:13:21Z</time>
      </trkpt>
      <trkpt lat="46.80249430" lon="25.79392310">
        <ele>1298.0000</ele>
        <time>2010-01-01T00:13:22Z</time>
      </trkpt>
      <trkpt lat="46.80248930" lon="25.79390640">
        <ele>1298.0000</ele>
        <time>2010-01-01T00:13:23Z</time>
      </trkpt>
      <trkpt lat="46.80246240" lon="25.79381850">
        <ele>1297.0000</ele>
        <time>2010-01-01T00:13:25Z</time>
      </trkpt>
      <trkpt lat="46.80246930" lon="25.79375170">
        <ele>1296.0000</ele>
        <time>2010-01-01T00:13:27Z</time>
      </trkpt>
      <trkpt lat="46.80248130" lon="25.79366090">
        <ele>1293.0000</ele>
        <time>2010-01-01T00:13:30Z</time>
      </trkpt>
      <trkpt lat="46.80250690" lon="25.79353920">
        <ele>1289.0000</ele>
        <time>2010-01-01T00:13:33Z</time>
      </trkpt>
      <trkpt lat="46.80250370" lon="25.79343880">
        <ele>1285.0000</ele>
        <time>2010-01-01T00:13:36Z</time>
      </trkpt>
      <trkpt lat="46.80250590" lon="25.79339230">
        <ele>1283.0000</ele>
        <time>2010-01-01T00:13:37Z</time>
      </trkpt>
      <trkpt lat="46.80250310" lon="25.79335070">
        <ele>1282.0000</ele>
        <time>2010-01-01T00:13:38Z</time>
      </trkpt>
      <trkpt lat="46.80251720" lon="25.79329730">
        <ele>1279.0000</ele>
        <time>2010-01-01T00:13:40Z</time>
      </trkpt>
      <trkpt lat="46.80254710" lon="25.79324820">
        <ele>1275.0000</ele>
        <time>2010-01-01T00:13:42Z</time>
      </trkpt>
      <trkpt lat="46.80255310" lon="25.79314590">
        <ele>1270.0000</ele>
        <time>2010-01-01T00:13:44Z</time>
      </trkpt>
      <trkpt lat="46.80255970" lon="25.79306160">
        <ele>1265.0000</ele>
        <time>2010-01-01T00:13:47Z</time>
      </trkpt>
      <trkpt lat="46.80253330" lon="25.79298540">
        <ele>1263.0000</ele>
        <time>2010-01-01T00:13:49Z</time>
      </trkpt>
      <trkpt lat="46.80252030" lon="25.79300010">
        <ele>1264.0000</ele>
        <time>2010-01-01T00:13:50Z</time>
      </trkpt>
      <trkpt lat="46.80249830" lon="25.79295310">
        <ele>1263.0000</ele>
        <time>2010-01-01T00:13:51Z</time>
      </trkpt>
      <trkpt lat="46.80250800" lon="25.79285200">
        <ele>1258.0000</ele>
        <time>2010-01-01T00:13:54Z</time>
      </trkpt>
      <trkpt lat="46.80250040" lon="25.79280250">
        <ele>1256.0000</ele>
        <time>2010-01-01T00:13:55Z</time>
      </trkpt>
      <trkpt lat="46.80247370" lon="25.79273820">
        <ele>1254.0000</ele>
        <time>2010-01-01T00:13:58Z</time>
      </trkpt>
      <trkpt lat="46.80242970" lon="25.79265950">
        <ele>1252.0000</ele>
        <time>2010-01-01T00:14:00Z</time>
      </trkpt>
      <trkpt lat="46.80241640" lon="25.79264190">
        <ele>1252.0000</ele>
        <time>2010-01-01T00:14:01Z</time>
      </trkpt>
      <trkpt lat="46.80240170" lon="25.79256280">
        <ele>1249.0000</ele>
        <time>2010-01-01T00:14:03Z</time>
      </trkpt>
      <trkpt lat="46.80233700" lon="25.79252820">
        <ele>1249.0000</ele>
        <time>2010-01-01T00:14:06Z</time>
      </trkpt>
      <trkpt lat="46.80234370" lon="25.79249480">
        <ele>1247.0000</ele>
        <time>2010-01-01T00:14:07Z</time>
      </trkpt>
      <trkpt lat="46.80233630" lon="25.79246040">
        <ele>1246.0000</ele>
        <time>2010-01-01T00:14:08Z</time>
      </trkpt>
      <trkpt lat="46.80231440" lon="25.79239870">
        <ele>1245.0000</ele>
        <time>2010-01-01T00:14:10Z</time>
      </trkpt>
      <trkpt lat="46.80226800" lon="25.79238690">
        <ele>1245.0000</ele>
        <time>2010-01-01T00:14:12Z</time>
      </trkpt>
      <trkpt lat="46.80223310" lon="25.79245430">
        <ele>1248.0000</ele>
        <time>2010-01-01T00:14:14Z</time>
      </trkpt>
      <trkpt lat="46.80212420" lon="25.79244150">
        <ele>1255.0000</ele>
        <time>2010-01-01T00:14:18Z</time>
      </trkpt>
      <trkpt lat="46.80202830" lon="25.79238720">
        <ele>1259.0000</ele>
        <time>2010-01-01T00:14:23Z</time>
      </trkpt>
      <trkpt lat="46.80199090" lon="25.79230720">
        <ele>1255.0000</ele>
        <time>2010-01-01T00:14:25Z</time>
      </trkpt>
      <trkpt lat="46.80195930" lon="25.79226820">
        <ele>1254.0000</ele>
        <time>2010-01-01T00:14:27Z</time>
      </trkpt>
      <trkpt lat="46.80186300" lon="25.79216300">
        <ele>1254.0000</ele>
        <time>2010-01-01T00:14:32Z</time>
      </trkpt>
      <trkpt lat="46.80176900" lon="25.79204630">
        <ele>1252.0000</ele>
        <time>2010-01-01T00:14:37Z</time>
      </trkpt>
      <trkpt lat="46.80167180" lon="25.79191010">
        <ele>1248.0000</ele>
        <time>2010-01-01T00:14:42Z</time>
      </trkpt>
      <trkpt lat="46.80162890" lon="25.79177870">
        <ele>1241.0000</ele>
        <time>2010-01-01T00:14:46Z</time>
      </trkpt>
      <trkpt lat="46.80159440" lon="25.79172450">
        <ele>1240.0000</ele>
        <time>2010-01-01T00:14:48Z</time>
      </trkpt>
      <trkpt lat="46.80150720" lon="25.79160920">
        <ele>1239.0000</ele>
        <time>2010-01-01T00:14:53Z</time>
      </trkpt>
      <trkpt lat="46.80146410" lon="25.79149570">
        <ele>1234.0000</ele>
        <time>2010-01-01T00:14:56Z</time>
      </trkpt>
      <trkpt lat="46.80139940" lon="25.79137330">
        <ele>1228.0000</ele>
        <time>2010-01-01T00:15:01Z</time>
      </trkpt>
      <trkpt lat="46.80135790" lon="25.79128480">
        <ele>1226.0000</ele>
        <time>2010-01-01T00:15:03Z</time>
      </trkpt>
      <trkpt lat="46.80130880" lon="25.79120340">
        <ele>1224.0000</ele>
        <time>2010-01-01T00:15:06Z</time>
      </trkpt>
      <trkpt lat="46.80122630" lon="25.79114040">
        <ele>1223.0000</ele>
        <time>2010-01-01T00:15:10Z</time>
      </trkpt>
      <trkpt lat="46.80118400" lon="25.79108010">
        <ele>1221.0000</ele>
        <time>2010-01-01T00:15:13Z</time>
      </trkpt>
      <trkpt lat="46.80107380" lon="25.79103390">
        <ele>1221.0000</ele>
        <time>2010-01-01T00:15:17Z</time>
      </trkpt>
      <trkpt lat="46.80101790" lon="25.79092570">
        <ele>1217.0000</ele>
        <time>2010-01-01T00:15:21Z</time>
      </trkpt>
      <trkpt lat="46.80094090" lon="25.79084160">
        <ele>1214.0000</ele>
        <time>2010-01-01T00:15:25Z</time>
      </trkpt>
      <trkpt lat="46.80084190" lon="25.79071580">
        <ele>1210.0000</ele>
        <time>2010-01-01T00:15:30Z</time>
      </trkpt>
      <trkpt lat="46.80075940" lon="25.79063980">
        <ele>1207.0000</ele>
        <time>2010-01-01T00:15:34Z</time>
      </trkpt>
      <trkpt lat="46.80067620" lon="25.79061130">
        <ele>1206.0000</ele>
        <time>2010-01-01T00:15:37Z</time>
      </trkpt>
      <trkpt lat="46.80059340" lon="25.79055930">
        <ele>1205.0000</ele>
        <time>2010-01-01T00:15:41Z</time>
      </trkpt>
      <trkpt lat="46.80048180" lon="25.79048680">
        <ele>1205.0000</ele>
        <time>2010-01-01T00:15:46Z</time>
      </trkpt>
      <trkpt lat="46.80036680" lon="25.79051360">
        <ele>1205.0000</ele>
        <time>2010-01-01T00:15:50Z</time>
      </trkpt>
      <trkpt lat="46.80024100" lon="25.79053800">
        <ele>1204.0000</ele>
        <time>2010-01-01T00:15:56Z</time>
      </trkpt>
      <trkpt lat="46.80016490" lon="25.79057060">
        <ele>1202.0000</ele>
        <time>2010-01-01T00:15:59Z</time>
      </trkpt>
      <trkpt lat="46.80006740" lon="25.79060440">
        <ele>1201.0000</ele>
        <time>2010-01-01T00:16:03Z</time>
      </trkpt>
      <trkpt lat="46.79998920" lon="25.79065430">
        <ele>1200.0000</ele>
        <time>2010-01-01T00:16:06Z</time>
      </trkpt>
      <trkpt lat="46.79988010" lon="25.79073500">
        <ele>1199.0000</ele>
        <time>2010-01-01T00:16:11Z</time>
      </trkpt>
      <trkpt lat="46.79975680" lon="25.79076920">
        <ele>1198.0000</ele>
        <time>2010-01-01T00:16:16Z</time>
      </trkpt>
      <trkpt lat="46.79963430" lon="25.79085290">
        <ele>1196.0000</ele>
        <time>2010-01-01T00:16:21Z</time>
      </trkpt>
      <trkpt lat="46.79959480" lon="25.79099340">
        <ele>1199.0000</ele>
        <time>2010-01-01T00:16:26Z</time>
      </trkpt>
      <trkpt lat="46.79948210" lon="25.79110370">
        <ele>1197.0000</ele>
        <time>2010-01-01T00:16:31Z</time>
      </trkpt>
      <trkpt lat="46.79933170" lon="25.79113410">
        <ele>1194.0000</ele>
        <time>2010-01-01T00:16:37Z</time>
      </trkpt>
      <trkpt lat="46.79918380" lon="25.79118990">
        <ele>1193.0000</ele>
        <time>2010-01-01T00:16:43Z</time>
      </trkpt>
      <trkpt lat="46.79907180" lon="25.79129550">
        <ele>1189.0000</ele>
        <time>2010-01-01T00:16:49Z</time>
      </trkpt>
      <trkpt lat="46.79899060" lon="25.79138720">
        <ele>1186.0000</ele>
        <time>2010-01-01T00:16:53Z</time>
      </trkpt>
      <trkpt lat="46.79895110" lon="25.79143850">
        <ele>1184.0000</ele>
        <time>2010-01-01T00:16:55Z</time>
      </trkpt>
      <trkpt lat="46.79891690" lon="25.79148920">
        <ele>1182.0000</ele>
        <time>2010-01-01T00:16:57Z</time>
      </trkpt>
      <trkpt lat="46.79885260" lon="25.79157060">
        <ele>1179.0000</ele>
        <time>2010-01-01T00:17:00Z</time>
      </trkpt>
      <trkpt lat="46.79873580" lon="25.79165710">
        <ele>1174.0000</ele>
        <time>2010-01-01T00:17:05Z</time>
      </trkpt>
      <trkpt lat="46.79865310" lon="25.79181720">
        <ele>1172.0000</ele>
        <time>2010-01-01T00:17:11Z</time>
      </trkpt>
      <trkpt lat="46.79857300" lon="25.79194050">
        <ele>1168.0000</ele>
        <time>2010-01-01T00:17:16Z</time>
      </trkpt>
      <trkpt lat="46.79848010" lon="25.79202740">
        <ele>1168.0000</ele>
        <time>2010-01-01T00:17:20Z</time>
      </trkpt>
      <trkpt lat="46.79844540" lon="25.79210240">
        <ele>1170.0000</ele>
        <time>2010-01-01T00:17:22Z</time>
      </trkpt>
      <trkpt lat="46.79841200" lon="25.79219770">
        <ele>1171.0000</ele>
        <time>2010-01-01T00:17:25Z</time>
      </trkpt>
      <trkpt lat="46.79836700" lon="25.79233600">
        <ele>1171.0000</ele>
        <time>2010-01-01T00:17:30Z</time>
      </trkpt>
      <trkpt lat="46.79830920" lon="25.79244270">
        <ele>1170.0000</ele>
        <time>2010-01-01T00:17:33Z</time>
      </trkpt>
      <trkpt lat="46.79827210" lon="25.79262060">
        <ele>1174.0000</ele>
        <time>2010-01-01T00:17:38Z</time>
      </trkpt>
      <trkpt lat="46.79824470" lon="25.79277650">
        <ele>1176.0000</ele>
        <time>2010-01-01T00:17:43Z</time>
      </trkpt>
      <trkpt lat="46.79819500" lon="25.79289450">
        <ele>1177.0000</ele>
        <time>2010-01-01T00:17:47Z</time>
      </trkpt>
      <trkpt lat="46.79816700" lon="25.79300940">
        <ele>1179.0000</ele>
        <time>2010-01-01T00:17:50Z</time>
      </trkpt>
      <trkpt lat="46.79810840" lon="25.79315490">
        <ele>1178.0000</ele>
        <time>2010-01-01T00:17:55Z</time>
      </trkpt>
      <trkpt lat="46.79797740" lon="25.79325790">
        <ele>1167.0000</ele>
        <time>2010-01-01T00:18:01Z</time>
      </trkpt>
      <trkpt lat="46.79791830" lon="25.79338110">
        <ele>1163.0000</ele>
        <time>2010-01-01T00:18:05Z</time>
      </trkpt>
      <trkpt lat="46.79789550" lon="25.79351280">
        <ele>1162.0000</ele>
        <time>2010-01-01T00:18:08Z</time>
      </trkpt>
      <trkpt lat="46.79787340" lon="25.79363350">
        <ele>1159.0000</ele>
        <time>2010-01-01T00:18:12Z</time>
      </trkpt>
      <trkpt lat="46.79785790" lon="25.79382370">
        <ele>1151.0000</ele>
        <time>2010-01-01T00:18:17Z</time>
      </trkpt>
      <trkpt lat="46.79775670" lon="25.79391910">
        <ele>1141.0000</ele>
        <time>2010-01-01T00:18:22Z</time>
      </trkpt>
      <trkpt lat="46.79769520" lon="25.79390220">
        <ele>1139.0000</ele>
        <time>2010-01-01T00:18:24Z</time>
      </trkpt>
      <trkpt lat="46.79764360" lon="25.79396970">
        <ele>1136.0000</ele>
        <time>2010-01-01T00:18:27Z</time>
      </trkpt>
      <trkpt lat="46.79760000" lon="25.79407930">
        <ele>1133.0000</ele>
        <time>2010-01-01T00:18:31Z</time>
      </trkpt>
      <trkpt lat="46.79756460" lon="25.79425510">
        <ele>1129.0000</ele>
        <time>2010-01-01T00:18:36Z</time>
      </trkpt>
      <trkpt lat="46.79752860" lon="25.79444240">
        <ele>1125.0000</ele>
        <time>2010-01-01T00:18:41Z</time>
      </trkpt>
      <trkpt lat="46.79757490" lon="25.79461660">
        <ele>1125.0000</ele>
        <time>2010-01-01T00:18:46Z</time>
      </trkpt>
      <trkpt lat="46.79761790" lon="25.79484070">
        <ele>1124.0000</ele>
        <time>2010-01-01T00:18:52Z</time>
      </trkpt>
      <trkpt lat="46.79753480" lon="25.79501480">
        <ele>1118.0000</ele>
        <time>2010-01-01T00:18:58Z</time>
      </trkpt>
      <trkpt lat="46.79745890" lon="25.79510340">
        <ele>1116.0000</ele>
        <time>2010-01-01T00:19:02Z</time>
      </trkpt>
      <trkpt lat="46.79730450" lon="25.79520650">
        <ele>1112.0000</ele>
        <time>2010-01-01T00:19:09Z</time>
      </trkpt>
      <trkpt lat="46.79709840" lon="25.79530880">
        <ele>1104.0000</ele>
        <time>2010-01-01T00:19:18Z</time>
      </trkpt>
      <trkpt lat="46.79706310" lon="25.79533320">
        <ele>1103.0000</ele>
        <time>2010-01-01T00:19:19Z</time>
      </trkpt>
      <trkpt lat="46.79706880" lon="25.79534050">
        <ele>1103.0000</ele>
        <time>2010-01-01T00:19:20Z</time>
      </trkpt>
      <trkpt lat="46.79705430" lon="25.79541580">
        <ele>1102.0000</ele>
        <time>2010-01-01T00:19:22Z</time>
      </trkpt>
      <trkpt lat="46.79706480" lon="25.79542870">
        <ele>1102.0000</ele>
        <time>2010-01-01T00:19:22Z</time>
      </trkpt>
      <trkpt lat="46.79699370" lon="25.79547570">
        <ele>1098.0000</ele>
        <time>2010-01-01T00:19:25Z</time>
      </trkpt>
      <trkpt lat="46.79688330" lon="25.79548050">
        <ele>1093.0000</ele>
        <time>2010-01-01T00:19:30Z</time>
      </trkpt>
      <trkpt lat="46.79680880" lon="25.79534610">
        <ele>1091.0000</ele>
        <time>2010-01-01T00:19:35Z</time>
      </trkpt>
      <trkpt lat="46.79674170" lon="25.79520190">
        <ele>1090.0000</ele>
        <time>2010-01-01T00:19:39Z</time>
      </trkpt>
      <trkpt lat="46.79670880" lon="25.79518110">
        <ele>1089.0000</ele>
        <time>2010-01-01T00:19:41Z</time>
      </trkpt>
      <trkpt lat="46.79665120" lon="25.79512140">
        <ele>1088.0000</ele>
        <time>2010-01-01T00:19:44Z</time>
      </trkpt>
      <trkpt lat="46.79663380" lon="25.79507510">
        <ele>1089.0000</ele>
        <time>2010-01-01T00:19:45Z</time>
      </trkpt>
      <trkpt lat="46.79662450" lon="25.79502150">
        <ele>1090.0000</ele>
        <time>2010-01-01T00:19:47Z</time>
      </trkpt>
      <trkpt lat="46.79660290" lon="25.79490950">
        <ele>1091.0000</ele>
        <time>2010-01-01T00:19:50Z</time>
      </trkpt>
      <trkpt lat="46.79651330" lon="25.79489500">
        <ele>1088.0000</ele>
        <time>2010-01-01T00:19:53Z</time>
      </trkpt>
      <trkpt lat="46.79646900" lon="25.79491350">
        <ele>1086.0000</ele>
        <time>2010-01-01T00:19:55Z</time>
      </trkpt>
      <trkpt lat="46.79639080" lon="25.79494720">
        <ele>1082.0000</ele>
        <time>2010-01-01T00:19:58Z</time>
      </trkpt>
      <trkpt lat="46.79629070" lon="25.79508510">
        <ele>1074.0000</ele>
        <time>2010-01-01T00:20:04Z</time>
      </trkpt>
      <trkpt lat="46.79621130" lon="25.79520550">
        <ele>1068.0000</ele>
        <time>2010-01-01T00:20:09Z</time>
      </trkpt>
      <trkpt lat="46.79619740" lon="25.79512910">
        <ele>1069.0000</ele>
        <time>2010-01-01T00:20:11Z</time>
      </trkpt>
      <trkpt lat="46.79620150" lon="25.79516680">
        <ele>1069.0000</ele>
        <time>2010-01-01T00:20:12Z</time>
      </trkpt>
      <trkpt lat="46.79613840" lon="25.79529060">
        <ele>1064.0000</ele>
        <time>2010-01-01T00:20:16Z</time>
      </trkpt>
      <trkpt lat="46.79609710" lon="25.79537690">
        <ele>1062.0000</ele>
        <time>2010-01-01T00:20:19Z</time>
      </trkpt>
      <trkpt lat="46.79599320" lon="25.79543390">
        <ele>1058.0000</ele>
        <time>2010-01-01T00:20:23Z</time>
      </trkpt>
      <trkpt lat="46.79597570" lon="25.79548090">
        <ele>1057.0000</ele>
        <time>2010-01-01T00:20:25Z</time>
      </trkpt>
      <trkpt lat="46.79590240" lon="25.79560290">
        <ele>1054.0000</ele>
        <time>2010-01-01T00:20:29Z</time>
      </trkpt>
      <trkpt lat="46.79582500" lon="25.79572630">
        <ele>1051.0000</ele>
        <time>2010-01-01T00:20:34Z</time>
      </trkpt>
      <trkpt lat="46.79575410" lon="25.79584620">
        <ele>1049.0000</ele>
        <time>2010-01-01T00:20:38Z</time>
      </trkpt>
      <trkpt lat="46.79575360" lon="25.79583610">
        <ele>1049.0000</ele>
        <time>2010-01-01T00:20:38Z</time>
      </trkpt>
      <trkpt lat="46.79575000" lon="25.79581810">
        <ele>1049.0000</ele>
        <time>2010-01-01T00:20:39Z</time>
      </trkpt>
      <trkpt lat="46.79570580" lon="25.79581360">
        <ele>1047.0000</ele>
        <time>2010-01-01T00:20:41Z</time>
      </trkpt>
      <trkpt lat="46.79564070" lon="25.79580320">
        <ele>1045.0000</ele>
        <time>2010-01-01T00:20:43Z</time>
      </trkpt>
      <trkpt lat="46.79554360" lon="25.79579480">
        <ele>1042.0000</ele>
        <time>2010-01-01T00:20:47Z</time>
      </trkpt>
      <trkpt lat="46.79546330" lon="25.79570050">
        <ele>1041.0000</ele>
        <time>2010-01-01T00:20:51Z</time>
      </trkpt>
      <trkpt lat="46.79540650" lon="25.79557670">
        <ele>1041.0000</ele>
        <time>2010-01-01T00:20:55Z</time>
      </trkpt>
      <trkpt lat="46.79537030" lon="25.79540150">
        <ele>1044.0000</ele>
        <time>2010-01-01T00:21:00Z</time>
      </trkpt>
      <trkpt lat="46.79538960" lon="25.79520290">
        <ele>1048.0000</ele>
        <time>2010-01-01T00:21:06Z</time>
      </trkpt>
      <trkpt lat="46.79533620" lon="25.79504160">
        <ele>1049.0000</ele>
        <time>2010-01-01T00:21:11Z</time>
      </trkpt>
      <trkpt lat="46.79522410" lon="25.79489760">
        <ele>1047.0000</ele>
        <time>2010-01-01T00:21:17Z</time>
      </trkpt>
      <trkpt lat="46.79507780" lon="25.79467340">
        <ele>1046.0000</ele>
        <time>2010-01-01T00:21:25Z</time>
      </trkpt>
      <trkpt lat="46.79490650" lon="25.79453830">
        <ele>1043.0000</ele>
        <time>2010-01-01T00:21:33Z</time>
      </trkpt>
      <trkpt lat="46.79483050" lon="25.79442630">
        <ele>1041.0000</ele>
        <time>2010-01-01T00:21:37Z</time>
      </trkpt>
      <trkpt lat="46.79467920" lon="25.79421780">
        <ele>1038.0000</ele>
        <time>2010-01-01T00:21:46Z</time>
      </trkpt>
      <trkpt lat="46.79456670" lon="25.79392390">
        <ele>1036.0000</ele>
        <time>2010-01-01T00:21:55Z</time>
      </trkpt>
      <trkpt lat="46.79446780" lon="25.79371150">
        <ele>1034.0000</ele>
        <time>2010-01-01T00:22:02Z</time>
      </trkpt>
      <trkpt lat="46.79434320" lon="25.79349310">
        <ele>1032.0000</ele>
        <time>2010-01-01T00:22:10Z</time>
      </trkpt>
      <trkpt lat="46.79426570" lon="25.79329820">
        <ele>1032.0000</ele>
        <time>2010-01-01T00:22:16Z</time>
      </trkpt>
      <trkpt lat="46.79421460" lon="25.79307400">
        <ele>1031.0000</ele>
        <time>2010-01-01T00:22:22Z</time>
      </trkpt>
      <trkpt lat="46.79416690" lon="25.79280360">
        <ele>1028.0000</ele>
        <time>2010-01-01T00:22:30Z</time>
      </trkpt>
      <trkpt lat="46.79410700" lon="25.79262370">
        <ele>1026.0000</ele>
        <time>2010-01-01T00:22:36Z</time>
      </trkpt>
      <trkpt lat="46.79405860" lon="25.79249470">
        <ele>1024.0000</ele>
        <time>2010-01-01T00:22:40Z</time>
      </trkpt>
      <trkpt lat="46.79395810" lon="25.79236750">
        <ele>1018.0000</ele>
        <time>2010-01-01T00:22:45Z</time>
      </trkpt>
      <trkpt lat="46.79391860" lon="25.79247480">
        <ele>1015.0000</ele>
        <time>2010-01-01T00:22:48Z</time>
      </trkpt>
      <trkpt lat="46.79401610" lon="25.79263950">
        <ele>1021.0000</ele>
        <time>2010-01-01T00:22:54Z</time>
      </trkpt>
      <trkpt lat="46.79403900" lon="25.79282140">
        <ele>1021.0000</ele>
        <time>2010-01-01T00:22:59Z</time>
      </trkpt>
      <trkpt lat="46.79394870" lon="25.79288930">
        <ele>1017.0000</ele>
        <time>2010-01-01T00:23:03Z</time>
      </trkpt>
      <trkpt lat="46.79386060" lon="25.79296030">
        <ele>1012.0000</ele>
        <time>2010-01-01T00:23:07Z</time>
      </trkpt>
      <trkpt lat="46.79384370" lon="25.79305470">
        <ele>1012.0000</ele>
        <time>2010-01-01T00:23:10Z</time>
      </trkpt>
      <trkpt lat="46.79378320" lon="25.79308320">
        <ele>1008.0000</ele>
        <time>2010-01-01T00:23:13Z</time>
      </trkpt>
      <trkpt lat="46.79379860" lon="25.79313910">
        <ele>1009.0000</ele>
        <time>2010-01-01T00:23:14Z</time>
      </trkpt>
      <trkpt lat="46.79378180" lon="25.79314060">
        <ele>1008.0000</ele>
        <time>2010-01-01T00:23:15Z</time>
      </trkpt>
      <trkpt lat="46.79371210" lon="25.79310630">
        <ele>1004.0000</ele>
        <time>2010-01-01T00:23:18Z</time>
      </trkpt>
      <trkpt lat="46.79368550" lon="25.79307010">
        <ele>1003.0000</ele>
        <time>2010-01-01T00:23:19Z</time>
      </trkpt>
      <trkpt lat="46.79370190" lon="25.79301970">
        <ele>1004.0000</ele>
        <time>2010-01-01T00:23:21Z</time>
      </trkpt>
      <trkpt lat="46.79371840" lon="25.79298800">
        <ele>1005.0000</ele>
        <time>2010-01-01T00:23:22Z</time>
      </trkpt>
      <trkpt lat="46.79371150" lon="25.79295250">
        <ele>1004.0000</ele>
        <time>2010-01-01T00:23:23Z</time>
      </trkpt>
      <trkpt lat="46.79371250" lon="25.79289770">
        <ele>1004.0000</ele>
        <time>2010-01-01T00:23:25Z</time>
      </trkpt>
      <trkpt lat="46.79368340" lon="25.79305170">
        <ele>1003.0000</ele>
        <time>2010-01-01T00:23:29Z</time>
      </trkpt>
      <trkpt lat="46.79365990" lon="25.79306860">
        <ele>1001.0000</ele>
        <time>2010-01-01T00:23:30Z</time>
      </trkpt>
      <trkpt lat="46.79366550" lon="25.79301170">
        <ele>1002.0000</ele>
        <time>2010-01-01T00:23:32Z</time>
      </trkpt>
      <trkpt lat="46.79364540" lon="25.79298850">
        <ele>1000.0000</ele>
        <time>2010-01-01T00:23:33Z</time>
      </trkpt>
      <trkpt lat="46.79359590" lon="25.79298050">
        <ele>998.00000</ele>
        <time>2010-01-01T00:23:35Z</time>
      </trkpt>
      <trkpt lat="46.79356840" lon="25.79297620">
        <ele>996.00000</ele>
        <time>2010-01-01T00:23:36Z</time>
      </trkpt>
      <trkpt lat="46.79350230" lon="25.79291110">
        <ele>993.00000</ele>
        <time>2010-01-01T00:23:39Z</time>
      </trkpt>
      <trkpt lat="46.79341730" lon="25.79281550">
        <ele>989.00000</ele>
        <time>2010-01-01T00:23:43Z</time>
      </trkpt>
      <trkpt lat="46.79329350" lon="25.79275290">
        <ele>983.00000</ele>
        <time>2010-01-01T00:23:48Z</time>
      </trkpt>
      <trkpt lat="46.79322510" lon="25.79272990">
        <ele>980.00000</ele>
        <time>2010-01-01T00:23:51Z</time>
      </trkpt>
      <trkpt lat="46.79321030" lon="25.79267740">
        <ele>980.00000</ele>
        <time>2010-01-01T00:23:53Z</time>
      </trkpt>
      <trkpt lat="46.79319650" lon="25.79258180">
        <ele>979.00000</ele>
        <time>2010-01-01T00:23:55Z</time>
      </trkpt>
      <trkpt lat="46.79316520" lon="25.79255720">
        <ele>979.00000</ele>
        <time>2010-01-01T00:23:57Z</time>
      </trkpt>
      <trkpt lat="46.79316230" lon="25.79257710">
        <ele>978.00000</ele>
        <time>2010-01-01T00:23:57Z</time>
      </trkpt>
      <trkpt lat="46.79315110" lon="25.79257440">
        <ele>978.00000</ele>
        <time>2010-01-01T00:23:58Z</time>
      </trkpt>
      <trkpt lat="46.79311350" lon="25.79267970">
        <ele>976.00000</ele>
        <time>2010-01-01T00:24:01Z</time>
      </trkpt>
      <trkpt lat="46.79310720" lon="25.79278300">
        <ele>976.00000</ele>
        <time>2010-01-01T00:24:04Z</time>
      </trkpt>
      <trkpt lat="46.79310140" lon="25.79291870">
        <ele>975.00000</ele>
        <time>2010-01-01T00:24:08Z</time>
      </trkpt>
      <trkpt lat="46.79311490" lon="25.79308090">
        <ele>976.00000</ele>
        <time>2010-01-01T00:24:12Z</time>
      </trkpt>
      <trkpt lat="46.79323550" lon="25.79331420">
        <ele>980.00000</ele>
        <time>2010-01-01T00:24:20Z</time>
      </trkpt>
      <trkpt lat="46.79327380" lon="25.79349610">
        <ele>979.00000</ele>
        <time>2010-01-01T00:24:25Z</time>
      </trkpt>
      <trkpt lat="46.79324490" lon="25.79364880">
        <ele>977.00000</ele>
        <time>2010-01-01T00:24:30Z</time>
      </trkpt>
      <trkpt lat="46.79309260" lon="25.79374570">
        <ele>974.00000</ele>
        <time>2010-01-01T00:24:36Z</time>
      </trkpt>
    </trkseg>
  </trk>
</gpx>

